createdAt,value
2023-03-06T00:00:56.466Z,99119.13
2023-03-06T00:01:58.959Z,99106.75
2023-03-06T00:03:00.842Z,99117.44
2023-03-06T00:04:02.783Z,99117.87
2023-03-06T00:05:05.028Z,99112.66
2023-03-06T00:06:07.249Z,99106.59
2023-03-06T00:07:09.448Z,99114.75
2023-03-06T00:08:11.620Z,99109.25
2023-03-06T00:09:13.521Z,99106.59
2023-03-06T00:10:18.232Z,99106.25
2023-03-06T00:11:21.068Z,99106.00
2023-03-06T00:12:23.305Z,99106.09
2023-03-06T00:13:26.619Z,99102.66
2023-03-06T00:14:28.615Z,99110.13
2023-03-06T00:15:30.924Z,99107.09
2023-03-06T00:16:32.960Z,99111.84
2023-03-06T00:17:36.026Z,99100.09
2023-03-06T00:18:37.938Z,99108.34
2023-03-06T00:19:39.827Z,99101.53
2023-03-06T00:20:43.626Z,99104.16
2023-03-06T00:21:45.590Z,99105.78
2023-03-06T00:22:48.006Z,99103.28
2023-03-06T00:23:49.876Z,99103.91
2023-03-06T00:24:53.615Z,99106.69
2023-03-06T00:25:55.501Z,99102.41
2023-03-06T00:26:57.457Z,99096.53
2023-03-06T00:27:59.618Z,99100.81
2023-03-06T00:29:01.665Z,99101.25
2023-03-06T00:30:03.927Z,99103.81
2023-03-06T00:31:05.974Z,99099.50
2023-03-06T00:32:08.072Z,99096.09
2023-03-06T00:33:11.249Z,99094.66
2023-03-06T00:34:13.279Z,99098.47
2023-03-06T00:35:16.240Z,99101.69
2023-03-06T00:36:18.477Z,99088.78
2023-03-06T00:37:22.317Z,99089.31
2023-03-06T00:38:27.527Z,99095.75
2023-03-06T00:39:31.002Z,99093.44
2023-03-06T00:40:32.987Z,99093.19
2023-03-06T00:41:35.039Z,99090.03
2023-03-06T00:42:37.016Z,99079.91
2023-03-06T00:43:39.432Z,99087.66
2023-03-06T00:44:42.900Z,99091.66
2023-03-06T00:45:44.928Z,99085.44
2023-03-06T00:46:46.896Z,99094.59
2023-03-06T00:47:48.792Z,99083.94
2023-03-06T00:48:50.992Z,99085.50
2023-03-06T00:49:55.872Z,99085.25
2023-03-06T00:50:57.829Z,99086.94
2023-03-06T00:51:59.878Z,99082.25
2023-03-06T00:53:01.839Z,99087.13
2023-03-06T00:54:03.993Z,99092.19
2023-03-06T00:55:06.412Z,99082.50
2023-03-06T00:56:09.206Z,99085.09
2023-03-06T00:57:11.133Z,99084.47
2023-03-06T00:58:13.517Z,99081.88
2023-03-06T00:59:15.886Z,99085.25
2023-03-06T01:00:18.271Z,99074.94
2023-03-06T01:01:20.224Z,99091.47
2023-03-06T01:02:22.229Z,99084.81
2023-03-06T01:03:24.139Z,99080.81
2023-03-06T01:04:27.705Z,99081.41
2023-03-06T01:05:30.957Z,99080.28
2023-03-06T01:06:34.349Z,99075.72
2023-03-06T01:07:38.235Z,99083.12
2023-03-06T01:08:40.241Z,99080.97
2023-03-06T01:09:42.728Z,99083.12
2023-03-06T01:10:44.618Z,99084.47
2023-03-06T01:11:46.813Z,99082.50
2023-03-06T01:12:48.735Z,99073.50
2023-03-06T01:13:50.626Z,99080.81
2023-03-06T01:14:55.180Z,99082.50
2023-03-06T01:16:06.626Z,99076.47
2023-03-06T01:17:08.596Z,99081.69
2023-03-06T01:18:11.210Z,99077.72
2023-03-06T01:19:13.459Z,99070.41
2023-03-06T01:20:18.563Z,99073.25
2023-03-06T01:21:20.474Z,99069.59
2023-03-06T01:22:22.472Z,99070.50
2023-03-06T01:23:24.467Z,99069.97
2023-03-06T01:24:26.435Z,99074.94
2023-03-06T01:25:31.721Z,99071.94
2023-03-06T01:26:34.527Z,99070.50
2023-03-06T01:27:36.550Z,99067.91
2023-03-06T01:28:39.247Z,99068.34
2023-03-06T01:29:41.291Z,99067.62
2023-03-06T01:30:43.587Z,99065.47
2023-03-06T01:31:45.511Z,99072.34
2023-03-06T01:32:48.314Z,99065.84
2023-03-06T01:33:50.470Z,99068.31
2023-03-06T01:34:52.702Z,99060.25
2023-03-06T01:35:55.006Z,99060.69
2023-03-06T01:36:57.085Z,99059.72
2023-03-06T01:37:59.156Z,99065.41
2023-03-06T01:39:01.041Z,99056.69
2023-03-06T01:40:03.407Z,99059.44
2023-03-06T01:41:06.244Z,99059.09
2023-03-06T01:42:08.144Z,99055.63
2023-03-06T01:43:28.587Z,99067.38
2023-03-06T01:44:30.505Z,99057.66
2023-03-06T01:45:34.974Z,99064.44
2023-03-06T01:46:46.885Z,99058.00
2023-03-06T01:47:48.875Z,99057.84
2023-03-06T01:48:55.601Z,99056.97
2023-03-06T01:50:00.512Z,99056.06
2023-03-06T01:51:02.650Z,99061.13
2023-03-06T01:52:11.989Z,99061.94
2023-03-06T01:53:15.343Z,99056.25
2023-03-06T01:54:27.856Z,99051.91
2023-03-06T01:55:33.921Z,99056.06
2023-03-06T01:56:36.565Z,99049.84
2023-03-06T01:57:44.151Z,99048.41
2023-03-06T01:58:46.774Z,99053.22
2023-03-06T01:59:55.452Z,99048.31
2023-03-06T02:00:59.051Z,99047.00
2023-03-06T02:02:02.802Z,99049.31
2023-03-06T02:03:09.950Z,99050.34
2023-03-06T02:04:12.976Z,99049.75
2023-03-06T02:05:14.854Z,99056.06
2023-03-06T02:06:19.812Z,99049.03
2023-03-06T02:07:22.432Z,99055.09
2023-03-06T02:08:24.948Z,99048.16
2023-03-06T02:09:30.171Z,99048.44
2023-03-06T02:10:32.318Z,99045.59
2023-03-06T02:11:34.211Z,99059.00
2023-03-06T02:12:37.630Z,99053.66
2023-03-06T02:13:40.863Z,99050.09
2023-03-06T02:14:44.311Z,99056.06
2023-03-06T02:15:46.286Z,99047.25
2023-03-06T02:16:48.580Z,99057.59
2023-03-06T02:17:52.215Z,99051.38
2023-03-06T02:18:54.573Z,99051.09
2023-03-06T02:20:09.240Z,99052.16
2023-03-06T02:21:20.367Z,99051.25
2023-03-06T02:22:25.853Z,99047.53
2023-03-06T02:23:45.825Z,99054.63
2023-03-06T02:25:00.716Z,99046.53
2023-03-06T02:26:04.091Z,99051.47
2023-03-06T02:27:08.137Z,99045.19
2023-03-06T02:28:13.916Z,99045.91
2023-03-06T02:29:24.063Z,99052.22
2023-03-06T02:30:27.701Z,99046.09
2023-03-06T02:31:32.161Z,99052.84
2023-03-06T02:32:34.060Z,99045.75
2023-03-06T02:33:35.981Z,99048.94
2023-03-06T02:34:37.825Z,99055.50
2023-03-06T02:35:40.634Z,99046.81
2023-03-06T02:36:47.758Z,99051.16
2023-03-06T02:37:49.940Z,99042.88
2023-03-06T02:38:52.671Z,99046.47
2023-03-06T02:40:05.975Z,99044.06
2023-03-06T02:41:09.263Z,99032.97
2023-03-06T02:42:21.552Z,99042.03
2023-03-06T02:43:28.211Z,99042.19
2023-03-06T02:44:30.643Z,99040.06
2023-03-06T02:45:45.234Z,99042.91
2023-03-06T02:46:47.142Z,99048.22
2023-03-06T02:47:49.471Z,99042.91
2023-03-06T02:48:51.325Z,99050.72
2023-03-06T02:49:53.338Z,99046.25
2023-03-06T02:50:55.236Z,99048.41
2023-03-06T02:51:57.148Z,99048.59
2023-03-06T02:52:59.409Z,99039.25
2023-03-06T02:54:01.554Z,99039.78
2023-03-06T02:55:03.809Z,99046.59
2023-03-06T02:56:06.155Z,99043.94
2023-03-06T02:57:08.143Z,99044.12
2023-03-06T02:58:10.871Z,99044.06
2023-03-06T02:59:13.335Z,99046.09
2023-03-06T03:00:16.423Z,99038.81
2023-03-06T03:01:18.775Z,99055.66
2023-03-06T03:02:20.926Z,99044.22
2023-03-06T03:03:23.216Z,99053.75
2023-03-06T03:04:27.666Z,99051.62
2023-03-06T03:05:30.293Z,99048.06
2023-03-06T03:06:32.740Z,99056.81
2023-03-06T03:07:34.905Z,99052.44
2023-03-06T03:08:37.693Z,99051.34
2023-03-06T03:09:39.854Z,99048.22
2023-03-06T03:10:41.761Z,99047.69
2023-03-06T03:11:43.740Z,99040.69
2023-03-06T03:12:46.119Z,99042.53
2023-03-06T03:13:48.642Z,99049.38
2023-03-06T03:14:51.297Z,99050.00
2023-03-06T03:16:01.469Z,99043.97
2023-03-06T03:17:03.618Z,99045.66
2023-03-06T03:18:05.510Z,99044.59
2023-03-06T03:19:07.762Z,99049.03
2023-03-06T03:20:13.906Z,99049.72
2023-03-06T03:21:15.851Z,99050.47
2023-03-06T03:22:19.641Z,99045.94
2023-03-06T03:23:22.243Z,99039.69
2023-03-06T03:24:25.217Z,99045.72
2023-03-06T03:25:27.771Z,99045.28
2023-03-06T03:26:30.082Z,99035.78
2023-03-06T03:27:32.452Z,99039.25
2023-03-06T03:28:34.585Z,99034.97
2023-03-06T03:29:37.128Z,99039.66
2023-03-06T03:30:40.290Z,99041.31
2023-03-06T03:31:42.794Z,99044.16
2023-03-06T03:32:44.687Z,99043.69
2023-03-06T03:33:47.111Z,99035.59
2023-03-06T03:34:49.483Z,99032.13
2023-03-06T03:36:03.539Z,99037.91
2023-03-06T03:37:05.909Z,99038.78
2023-03-06T03:38:07.880Z,99041.31
2023-03-06T03:39:10.251Z,99032.69
2023-03-06T03:40:13.180Z,99030.81
2023-03-06T03:41:15.082Z,99023.53
2023-03-06T03:42:16.976Z,99029.38
2023-03-06T03:43:19.609Z,99026.09
2023-03-06T03:44:21.561Z,99035.06
2023-03-06T03:45:24.205Z,99026.63
2023-03-06T03:46:27.581Z,99027.25
2023-03-06T03:47:29.857Z,99029.12
2023-03-06T03:48:32.220Z,99026.78
2023-03-06T03:49:34.886Z,99028.13
2023-03-06T03:50:38.242Z,99020.84
2023-03-06T03:51:40.947Z,99027.69
2023-03-06T03:52:43.076Z,99026.91
2023-03-06T03:53:46.146Z,99022.62
2023-03-06T03:54:48.589Z,99028.84
2023-03-06T03:55:50.877Z,99023.44
2023-03-06T03:56:53.289Z,99027.41
2023-03-06T03:57:55.668Z,99033.31
2023-03-06T03:58:57.789Z,99032.69
2023-03-06T04:00:00.322Z,99029.38
2023-03-06T04:01:03.258Z,99029.56
2023-03-06T04:02:05.812Z,99035.41
2023-03-06T04:03:08.478Z,99027.41
2023-03-06T04:04:10.986Z,99031.88
2023-03-06T04:05:15.717Z,99027.41
2023-03-06T04:06:18.427Z,99025.75
2023-03-06T04:07:21.321Z,99023.53
2023-03-06T04:08:25.314Z,99027.88
2023-03-06T04:09:27.340Z,99025.66
2023-03-06T04:10:29.490Z,99026.81
2023-03-06T04:11:31.650Z,99025.22
2023-03-06T04:12:34.100Z,99024.59
2023-03-06T04:13:36.394Z,99023.34
2023-03-06T04:14:38.453Z,99029.03
2023-03-06T04:15:40.836Z,99026.37
2023-03-06T04:16:42.725Z,99027.06
2023-03-06T04:17:44.944Z,99023.94
2023-03-06T04:18:47.236Z,99026.06
2023-03-06T04:19:49.421Z,99022.44
2023-03-06T04:20:52.612Z,99024.69
2023-03-06T04:21:54.710Z,99025.00
2023-03-06T04:22:57.038Z,99030.91
2023-03-06T04:23:58.972Z,99024.22
2023-03-06T04:25:00.831Z,99024.38
2023-03-06T04:26:03.122Z,99026.91
2023-03-06T04:27:05.362Z,99023.06
2023-03-06T04:28:08.871Z,99023.97
2023-03-06T04:29:10.824Z,99020.69
2023-03-06T04:30:13.100Z,99030.63
2023-03-06T04:31:15.236Z,99024.19
2023-03-06T04:32:19.720Z,99032.56
2023-03-06T04:33:23.763Z,99017.34
2023-03-06T04:34:25.856Z,99024.22
2023-03-06T04:35:27.889Z,99019.53
2023-03-06T04:36:34.745Z,99021.25
2023-03-06T04:37:36.975Z,99031.47
2023-03-06T04:38:39.828Z,99021.31
2023-03-06T04:39:41.688Z,99015.66
2023-03-06T04:40:44.997Z,99027.53
2023-03-06T04:41:47.095Z,99028.56
2023-03-06T04:42:49.285Z,99029.09
2023-03-06T04:43:51.921Z,99030.00
2023-03-06T04:44:53.803Z,99023.75
2023-03-06T04:45:55.756Z,99035.72
2023-03-06T04:46:57.642Z,99034.66
2023-03-06T04:47:59.943Z,99027.22
2023-03-06T04:49:02.194Z,99027.97
2023-03-06T04:50:04.954Z,99031.16
2023-03-06T04:51:07.161Z,99026.44
2023-03-06T04:52:09.054Z,99027.06
2023-03-06T04:53:11.117Z,99025.09
2023-03-06T04:54:13.303Z,99027.47
2023-03-06T04:55:16.789Z,99020.31
2023-03-06T04:56:18.941Z,99024.03
2023-03-06T04:57:20.919Z,99025.13
2023-03-06T04:58:22.952Z,99023.69
2023-03-06T04:59:25.255Z,99019.31
2023-03-06T05:00:31.904Z,99027.25
2023-03-06T05:01:33.844Z,99025.28
2023-03-06T05:02:36.747Z,99018.00
2023-03-06T05:03:38.808Z,99030.91
2023-03-06T05:04:40.934Z,99023.69
2023-03-06T05:05:43.184Z,99027.41
2023-03-06T05:06:45.093Z,99032.03
2023-03-06T05:07:47.028Z,99021.62
2023-03-06T05:08:49.009Z,99027.16
2023-03-06T05:09:51.169Z,99029.81
2023-03-06T05:10:56.221Z,99030.44
2023-03-06T05:11:58.304Z,99029.12
2023-03-06T05:13:00.318Z,99027.31
2023-03-06T05:14:02.176Z,99024.69
2023-03-06T05:15:05.633Z,99026.16
2023-03-06T05:16:08.202Z,99024.19
2023-03-06T05:17:10.511Z,99032.03
2023-03-06T05:18:12.428Z,99025.22
2023-03-06T05:19:14.299Z,99029.91
2023-03-06T05:20:17.755Z,99027.97
2023-03-06T05:21:19.695Z,99028.59
2023-03-06T05:22:21.890Z,99025.13
2023-03-06T05:23:23.725Z,99026.19
2023-03-06T05:24:25.592Z,99025.28
2023-03-06T05:25:27.736Z,99021.53
2023-03-06T05:26:29.633Z,99028.22
2023-03-06T05:27:31.492Z,99015.47
2023-03-06T05:28:33.339Z,99025.97
2023-03-06T05:29:35.164Z,99030.63
2023-03-06T05:30:37.372Z,99027.16
2023-03-06T05:31:39.338Z,99023.94
2023-03-06T05:32:41.693Z,99027.22
2023-03-06T05:33:43.592Z,99018.56
2023-03-06T05:34:45.441Z,99025.75
2023-03-06T05:35:48.686Z,99028.88
2023-03-06T05:36:50.666Z,99023.31
2023-03-06T05:37:52.820Z,99025.09
2023-03-06T05:38:55.159Z,99029.72
2023-03-06T05:39:57.071Z,99032.91
2023-03-06T05:40:59.268Z,99029.34
2023-03-06T05:42:01.213Z,99025.09
2023-03-06T05:43:03.109Z,99031.41
2023-03-06T05:44:05.149Z,99033.19
2023-03-06T05:45:07.856Z,99035.31
2023-03-06T05:46:11.537Z,99038.03
2023-03-06T05:47:13.623Z,99046.00
2023-03-06T05:48:15.533Z,99036.12
2023-03-06T05:49:17.456Z,99043.06
2023-03-06T05:50:19.391Z,99040.31
2023-03-06T05:51:21.637Z,99041.28
2023-03-06T05:52:23.489Z,99039.53
2023-03-06T05:53:26.749Z,99041.44
2023-03-06T05:54:28.600Z,99031.16
2023-03-06T05:55:30.629Z,99035.69
2023-03-06T05:56:32.876Z,99041.13
2023-03-06T05:57:34.736Z,99036.62
2023-03-06T05:58:37.197Z,99030.25
2023-03-06T05:59:39.129Z,99029.62
2023-03-06T06:00:41.148Z,99030.81
2023-03-06T06:01:43.512Z,99029.19
2023-03-06T06:02:46.626Z,99033.87
2023-03-06T06:03:48.616Z,99032.44
2023-03-06T06:04:50.499Z,99040.44
2023-03-06T06:05:52.780Z,99037.88
2023-03-06T06:07:00.207Z,99035.97
2023-03-06T06:08:02.337Z,99039.47
2023-03-06T06:09:04.563Z,99044.62
2023-03-06T06:10:07.279Z,99046.06
2023-03-06T06:11:11.011Z,99041.47
2023-03-06T06:12:14.355Z,99038.22
2023-03-06T06:13:16.306Z,99035.47
2023-03-06T06:14:18.226Z,99036.94
2023-03-06T06:15:20.122Z,99038.72
2023-03-06T06:16:22.515Z,99037.81
2023-03-06T06:17:24.851Z,99045.41
2023-03-06T06:18:26.832Z,99041.50
2023-03-06T06:19:30.283Z,99039.72
2023-03-06T06:20:32.327Z,99035.63
2023-03-06T06:21:34.300Z,99039.19
2023-03-06T06:22:38.006Z,99036.59
2023-03-06T06:23:40.541Z,99045.88
2023-03-06T06:24:42.460Z,99048.53
2023-03-06T06:25:44.376Z,99046.38
2023-03-06T06:26:46.333Z,99036.78
2023-03-06T06:27:48.481Z,99052.56
2023-03-06T06:28:50.549Z,99047.69
2023-03-06T06:29:52.647Z,99047.16
2023-03-06T06:30:54.698Z,99046.81
2023-03-06T06:31:56.951Z,99053.66
2023-03-06T06:32:59.925Z,99044.19
2023-03-06T06:34:01.810Z,99050.78
2023-03-06T06:35:04.380Z,99051.72
2023-03-06T06:36:14.338Z,99046.75
2023-03-06T06:37:16.758Z,99050.41
2023-03-06T06:38:19.719Z,99045.12
2023-03-06T06:39:23.438Z,99046.50
2023-03-06T06:40:27.577Z,99055.31
2023-03-06T06:41:50.690Z,99050.69
2023-03-06T06:42:53.104Z,99047.13
2023-03-06T06:43:56.307Z,99049.09
2023-03-06T06:44:59.223Z,99053.25
2023-03-06T06:46:23.068Z,99052.94
2023-03-06T06:47:25.076Z,99047.94
2023-03-06T06:48:27.547Z,99049.09
2023-03-06T06:49:29.710Z,99057.34
2023-03-06T06:50:31.587Z,99056.44
2023-03-06T06:51:34.076Z,99054.00
2023-03-06T06:52:35.957Z,99060.72
2023-03-06T06:53:37.804Z,99059.91
2023-03-06T06:54:39.939Z,99058.69
2023-03-06T06:55:42.955Z,99061.28
2023-03-06T06:56:44.783Z,99059.41
2023-03-06T06:57:46.725Z,99062.16
2023-03-06T06:58:48.642Z,99056.22
2023-03-06T06:59:53.358Z,99057.66
2023-03-06T07:00:55.886Z,99057.13
2023-03-06T07:01:57.780Z,99055.84
2023-03-06T07:02:59.694Z,99046.38
2023-03-06T07:04:01.946Z,99046.00
2023-03-06T07:05:05.597Z,99050.88
2023-03-06T07:06:07.979Z,99046.38
2023-03-06T07:07:10.073Z,99041.72
2023-03-06T07:08:11.968Z,99045.41
2023-03-06T07:09:14.361Z,99046.00
2023-03-06T07:10:17.039Z,99039.88
2023-03-06T07:11:20.103Z,99045.41
2023-03-06T07:12:22.148Z,99047.97
2023-03-06T07:13:24.093Z,99049.59
2023-03-06T07:14:26.020Z,99046.88
2023-03-06T07:15:29.947Z,99046.81
2023-03-06T07:16:31.920Z,99054.13
2023-03-06T07:17:34.108Z,99047.69
2023-03-06T07:18:36.063Z,99056.84
2023-03-06T07:19:38.686Z,99050.88
2023-03-06T07:20:42.069Z,99052.06
2023-03-06T07:21:43.945Z,99055.75
2023-03-06T07:22:51.246Z,99053.25
2023-03-06T07:23:54.398Z,99057.84
2023-03-06T07:24:56.346Z,99059.97
2023-03-06T07:25:59.165Z,99063.87
2023-03-06T07:27:01.081Z,99061.50
2023-03-06T07:28:02.965Z,99059.53
2023-03-06T07:29:05.106Z,99062.47
2023-03-06T07:30:08.197Z,99060.81
2023-03-06T07:31:11.638Z,99059.03
2023-03-06T07:32:13.565Z,99067.69
2023-03-06T07:33:16.039Z,99068.19
2023-03-06T07:34:17.886Z,99071.22
2023-03-06T07:35:20.935Z,99063.53
2023-03-06T07:36:24.212Z,99079.28
2023-03-06T07:37:26.136Z,99080.63
2023-03-06T07:38:28.050Z,99084.22
2023-03-06T07:39:30.361Z,99081.06
2023-03-06T07:40:32.263Z,99075.22
2023-03-06T07:41:34.836Z,99082.00
2023-03-06T07:42:36.673Z,99061.72
2023-03-06T07:43:38.876Z,99068.69
2023-03-06T07:44:42.072Z,99066.47
2023-03-06T07:45:44.052Z,99065.72
2023-03-06T07:46:46.306Z,99069.88
2023-03-06T07:47:50.670Z,99068.31
2023-03-06T07:48:52.633Z,99073.31
2023-03-06T07:49:56.435Z,99064.44
2023-03-06T07:51:03.342Z,99074.53
2023-03-06T07:52:05.659Z,99068.38
2023-03-06T07:53:07.638Z,99058.09
2023-03-06T07:54:09.743Z,99061.69
2023-03-06T07:55:12.113Z,99064.06
2023-03-06T07:56:14.414Z,99071.53
2023-03-06T07:57:16.663Z,99073.88
2023-03-06T07:58:18.528Z,99071.59
2023-03-06T07:59:20.391Z,99073.19
2023-03-06T08:00:22.569Z,99080.50
2023-03-06T08:01:25.127Z,99084.09
2023-03-06T08:02:27.063Z,99077.91
2023-03-06T08:03:28.981Z,99079.59
2023-03-06T08:04:30.920Z,99081.38
2023-03-06T08:05:32.841Z,99089.44
2023-03-06T08:06:35.181Z,99082.59
2023-03-06T08:07:37.133Z,99086.47
2023-03-06T08:08:40.676Z,99079.28
2023-03-06T08:09:42.522Z,99077.06
2023-03-06T08:10:49.052Z,99081.69
2023-03-06T08:11:51.597Z,99081.25
2023-03-06T08:12:53.645Z,99091.97
2023-03-06T08:13:57.398Z,99086.78
2023-03-06T08:14:59.274Z,99084.38
2023-03-06T08:16:01.461Z,99090.97
2023-03-06T08:17:03.830Z,99088.94
2023-03-06T08:18:05.728Z,99081.63
2023-03-06T08:19:07.939Z,99088.50
2023-03-06T08:20:10.572Z,99082.47
2023-03-06T08:21:14.859Z,99083.34
2023-03-06T08:22:17.073Z,99083.03
2023-03-06T08:23:18.990Z,99084.06
2023-03-06T08:24:20.964Z,99088.50
2023-03-06T08:25:24.671Z,99080.44
2023-03-06T08:26:29.410Z,99077.13
2023-03-06T08:27:32.956Z,99090.53
2023-03-06T08:28:35.315Z,99080.97
2023-03-06T08:29:37.225Z,99083.59
2023-03-06T08:30:39.144Z,99076.81
2023-03-06T08:31:46.140Z,99085.47
2023-03-06T08:32:48.533Z,99078.53
2023-03-06T08:33:50.620Z,99081.72
2023-03-06T08:34:52.907Z,99081.84
2023-03-06T08:35:54.841Z,99074.13
2023-03-06T08:36:56.660Z,99080.28
2023-03-06T08:37:58.834Z,99081.09
2023-03-06T08:39:01.334Z,99074.88
2023-03-06T08:40:04.714Z,99079.50
2023-03-06T08:41:06.764Z,99082.31
2023-03-06T08:42:10.540Z,99079.13
2023-03-06T08:43:14.148Z,99083.84
2023-03-06T08:44:16.246Z,99081.47
2023-03-06T08:45:18.110Z,99082.31
2023-03-06T08:46:23.375Z,99082.78
2023-03-06T08:47:25.356Z,99089.47
2023-03-06T08:48:27.925Z,99088.72
2023-03-06T08:49:30.639Z,99084.38
2023-03-06T08:50:32.565Z,99089.53
2023-03-06T08:51:34.672Z,99078.91
2023-03-06T08:52:36.576Z,99082.03
2023-03-06T08:53:43.897Z,99083.00
2023-03-06T08:54:46.835Z,99084.94
2023-03-06T08:55:48.681Z,99086.94
2023-03-06T08:56:50.538Z,99087.16
2023-03-06T08:57:52.393Z,99090.50
2023-03-06T08:58:56.063Z,99090.12
2023-03-06T08:59:57.929Z,99088.59
2023-03-06T09:00:59.901Z,99091.28
2023-03-06T09:02:01.990Z,99091.72
2023-03-06T09:03:04.842Z,99086.44
2023-03-06T09:04:11.096Z,99088.97
2023-03-06T09:05:12.953Z,99087.28
2023-03-06T09:06:15.537Z,99093.31
2023-03-06T09:07:17.459Z,99092.94
2023-03-06T09:08:19.303Z,99082.66
2023-03-06T09:09:21.489Z,99086.59
2023-03-06T09:10:25.681Z,99088.34
2023-03-06T09:11:28.036Z,99086.37
2023-03-06T09:12:32.600Z,99089.00
2023-03-06T09:13:39.183Z,99080.22
2023-03-06T09:14:41.488Z,99085.31
2023-03-06T09:15:43.391Z,99083.31
2023-03-06T09:16:45.256Z,99072.59
2023-03-06T09:17:50.885Z,99072.72
2023-03-06T09:18:54.102Z,99072.28
2023-03-06T09:19:56.292Z,99073.06
2023-03-06T09:20:58.209Z,99069.31
2023-03-06T09:22:01.066Z,99073.66
2023-03-06T09:23:03.038Z,99068.66
2023-03-06T09:24:05.077Z,99055.53
2023-03-06T09:25:07.606Z,99058.13
2023-03-06T09:26:09.553Z,99052.50
2023-03-06T09:27:11.462Z,99045.56
2023-03-06T09:28:13.283Z,99047.41
2023-03-06T09:29:16.575Z,99048.19
2023-03-06T09:30:19.161Z,99053.31
2023-03-06T09:31:21.362Z,99052.59
2023-03-06T09:32:24.274Z,99058.78
2023-03-06T09:33:28.728Z,99053.22
2023-03-06T09:34:30.674Z,99049.09
2023-03-06T09:35:32.965Z,99053.50
2023-03-06T09:36:49.282Z,99051.50
2023-03-06T09:37:56.948Z,99053.50
2023-03-06T09:38:58.837Z,99049.50
2023-03-06T09:40:00.722Z,99053.72
2023-03-06T09:41:11.744Z,99050.31
2023-03-06T09:42:20.310Z,99044.31
2023-03-06T09:43:28.245Z,99041.94
2023-03-06T09:44:33.606Z,99046.72
2023-03-06T09:45:37.292Z,99044.12
2023-03-06T09:47:00.903Z,99041.53
2023-03-06T09:48:13.608Z,99039.72
2023-03-06T09:50:01.741Z,99034.72
2023-03-06T09:51:12.566Z,99029.06
2023-03-06T09:52:30.002Z,99038.03
2023-03-06T09:54:02.652Z,99036.72
2023-03-06T09:55:16.459Z,99035.97
2023-03-06T09:56:22.074Z,99027.84
2023-03-06T09:57:35.377Z,99034.66
2023-03-06T09:58:47.508Z,99029.50
2023-03-06T09:59:53.848Z,99028.75
2023-03-06T10:01:03.708Z,99026.22
2023-03-06T10:02:21.013Z,99026.22
2023-03-06T10:03:54.941Z,99028.16
2023-03-06T10:05:01.126Z,99030.03
2023-03-06T10:06:23.075Z,99024.63
2023-03-06T10:07:43.325Z,99023.03
2023-03-06T10:08:54.118Z,99024.94
2023-03-06T10:10:06.018Z,99027.03
2023-03-06T10:11:11.534Z,99023.56
2023-03-06T10:12:24.511Z,99024.13
2023-03-06T10:13:39.526Z,99017.34
2023-03-06T10:15:09.015Z,99024.22
2023-03-06T10:16:23.587Z,99023.19
2023-03-06T10:17:30.780Z,99023.38
2023-03-06T10:18:33.460Z,99024.78
2023-03-06T10:19:37.937Z,99023.50
2023-03-06T10:21:18.631Z,99026.84
2023-03-06T10:22:52.576Z,99021.19
2023-03-06T10:24:21.042Z,99020.84
2023-03-06T10:25:26.169Z,99020.44
2023-03-06T10:26:40.347Z,99014.31
2023-03-06T10:27:48.237Z,99015.75
2023-03-06T10:28:52.917Z,99012.56
2023-03-06T10:30:23.161Z,99003.78
2023-03-06T10:31:27.788Z,99005.97
2023-03-06T10:32:51.215Z,99009.97
2023-03-06T10:33:58.111Z,99013.81
2023-03-06T10:35:01.913Z,99003.81
2023-03-06T10:36:04.693Z,99000.56
2023-03-06T10:37:21.566Z,99010.22
2023-03-06T10:38:37.364Z,99021.88
2023-03-06T10:39:39.630Z,99001.75
2023-03-06T10:41:10.962Z,99006.38
2023-03-06T10:42:12.853Z,99003.59
2023-03-06T10:43:14.702Z,98999.19
2023-03-06T10:44:17.386Z,99005.44
2023-03-06T10:45:19.464Z,98996.81
2023-03-06T10:46:39.839Z,98998.91
2023-03-06T10:47:42.902Z,98997.03
2023-03-06T10:48:58.003Z,98988.41
2023-03-06T10:50:02.522Z,98996.47
2023-03-06T10:51:25.602Z,98998.00
2023-03-06T10:52:33.617Z,98990.84
2023-03-06T10:53:35.510Z,98988.13
2023-03-06T10:54:43.429Z,98993.75
2023-03-06T10:55:59.209Z,98983.03
2023-03-06T10:57:17.664Z,98979.03
2023-03-06T10:58:29.070Z,98976.72
2023-03-06T10:59:31.075Z,98979.03
2023-03-06T11:00:38.283Z,98971.94
2023-03-06T11:01:42.948Z,98972.78
2023-03-06T11:02:44.929Z,98969.16
2023-03-06T11:03:47.864Z,98969.53
2023-03-06T11:04:53.387Z,98962.75
2023-03-06T11:06:07.404Z,98961.53
2023-03-06T11:07:23.356Z,98952.66
2023-03-06T11:08:25.212Z,98959.31
2023-03-06T11:09:27.386Z,98955.44
2023-03-06T11:10:31.753Z,98948.63
2023-03-06T11:11:37.851Z,98940.63
2023-03-06T11:12:42.537Z,98938.09
2023-03-06T11:13:44.598Z,98947.00
2023-03-06T11:14:46.960Z,98939.53
2023-03-06T11:15:57.514Z,98940.19
2023-03-06T11:16:59.468Z,98935.31
2023-03-06T11:18:23.988Z,98930.38
2023-03-06T11:19:28.788Z,98933.75
2023-03-06T11:20:51.948Z,98928.28
2023-03-06T11:22:05.962Z,98937.09
2023-03-06T11:23:17.284Z,98929.59
2023-03-06T11:24:20.917Z,98917.72
2023-03-06T11:25:29.238Z,98919.19
2023-03-06T11:26:41.188Z,98908.53
2023-03-06T11:27:46.977Z,98908.53
2023-03-06T11:29:12.153Z,98906.28
2023-03-06T11:30:21.524Z,98907.72
2023-03-06T11:31:28.237Z,98909.34
2023-03-06T11:32:36.892Z,98901.56
2023-03-06T11:34:00.282Z,98894.66
2023-03-06T11:35:05.772Z,98897.28
2023-03-06T11:36:25.052Z,98891.66
2023-03-06T11:37:32.720Z,98893.91
2023-03-06T11:38:52.567Z,98892.50
2023-03-06T11:40:13.627Z,98887.34
2023-03-06T11:41:32.716Z,98895.06
2023-03-06T11:42:40.751Z,98885.28
2023-03-06T11:44:06.435Z,98885.12
2023-03-06T11:45:19.179Z,98877.34
2023-03-06T11:46:26.393Z,98872.72
2023-03-06T11:47:46.311Z,98874.16
2023-03-06T11:49:05.282Z,98858.72
2023-03-06T11:50:22.993Z,98859.94
2023-03-06T11:51:33.365Z,98864.63
2023-03-06T11:52:47.539Z,98855.53
2023-03-06T11:53:49.797Z,98849.25
2023-03-06T11:54:57.757Z,98842.44
2023-03-06T11:56:16.189Z,98855.44
2023-03-06T11:57:23.105Z,98845.56
2023-03-06T11:58:48.863Z,98851.66
2023-03-06T12:00:06.567Z,98848.03
2023-03-06T12:01:43.415Z,98839.84
2023-03-06T12:03:05.701Z,98844.03
2023-03-06T12:04:46.744Z,98836.53
2023-03-06T12:06:10.494Z,98836.50
2023-03-06T12:07:41.913Z,98827.16
2023-03-06T12:09:09.808Z,98828.94
2023-03-06T12:10:14.495Z,98821.16
2023-03-06T12:11:45.684Z,98821.75
2023-03-06T12:12:53.159Z,98817.75
2023-03-06T12:14:13.922Z,98812.25
2023-03-06T12:15:37.787Z,98815.06
2023-03-06T12:16:48.291Z,98814.41
2023-03-06T12:18:05.372Z,98813.72
2023-03-06T12:19:41.484Z,98807.44
2023-03-06T12:21:10.153Z,98811.56
2023-03-06T12:22:20.805Z,98801.56
2023-03-06T12:23:50.133Z,98794.78
2023-03-06T12:25:15.939Z,98797.19
2023-03-06T12:26:23.454Z,98801.66
2023-03-06T12:27:34.412Z,98795.88
2023-03-06T12:28:42.366Z,98800.41
2023-03-06T12:30:06.479Z,98799.78
2023-03-06T12:31:16.068Z,98796.06
2023-03-06T12:32:27.760Z,98796.66
2023-03-06T12:33:37.125Z,98801.28
2023-03-06T12:35:01.118Z,98794.66
2023-03-06T12:36:18.240Z,98790.50
2023-03-06T12:37:35.433Z,98786.09
2023-03-06T12:38:58.521Z,98793.62
2023-03-06T12:40:21.505Z,98795.34
2023-03-06T12:41:38.864Z,98789.81
2023-03-06T12:43:04.815Z,98793.41
2023-03-06T12:44:15.562Z,98792.62
2023-03-06T12:45:22.823Z,98786.78
2023-03-06T12:46:27.346Z,98793.41
2023-03-06T12:47:33.278Z,98792.69
2023-03-06T12:48:37.512Z,98794.28